Time;durP1;ratioP1;P1;durP2;ratioP2;P2;SDS_P1;SDS_P2;PMS_P1;PMS_P2;Temp;Humidity;BMP_temperature;BMP_pressure;BME280_temperature;BME280_humidity;BME280_pressure;Samples;Min_cycle;Max_cycle;Signal;HPM_P1;HPM_P2
2022/04/12 00:02:13;;;;;;;82.05;70.45;;;27.90;83.50;;;;;;1817165;77;21084;-86
2022/04/12 00:04:44;;;;;;;79.87;71.17;;;28.00;84.60;;;;;;1811052;77;21202;-85
2022/04/12 00:07:15;;;;;;;79.37;70.75;;;28.00;84.10;;;;;;1842158;77;21089;-85
2022/04/12 00:09:46;;;;;;;82.42;72.20;;;28.00;84.10;;;;;;1839146;78;21155;-84
2022/04/12 00:12:18;;;;;;;79.45;70.40;;;28.00;84.20;;;;;;1814818;78;21096;-85
2022/04/12 00:14:48;;;;;;;81.45;71.42;;;28.00;82.90;;;;;;1827601;78;21241;-85
2022/04/12 00:19:52;;;;;;;81.22;71.62;;;28.10;85.30;;;;;;1829518;78;21258;-84
2022/04/12 00:22:23;;;;;;;81.02;72.12;;;28.10;84.20;;;;;;1817594;78;21105;-84
2022/04/12 00:24:54;;;;;;;81.00;72.32;;;28.20;83.90;;;;;;1817405;77;21194;-84
2022/04/12 00:27:25;;;;;;;80.85;70.35;;;28.20;84.60;;;;;;1814121;78;21109;-84
2022/04/12 00:29:57;;;;;;;85.57;73.25;;;28.30;83.00;;;;;;1827373;77;21102;-84
2022/04/12 00:32:29;;;;;;;82.92;70.87;;;28.30;83.50;;;;;;1832907;77;21545;-83
2022/04/12 00:35:01;;;;;;;80.10;70.62;;;28.30;82.80;;;;;;1823831;78;21069;-84
2022/04/12 00:37:32;;;;;;;81.75;72.60;;;28.30;83.40;;;;;;1816286;78;21062;-84
2022/04/12 00:40:04;;;;;;;80.67;71.40;;;28.30;84.00;;;;;;1809773;77;21133;-84
2022/04/12 00:42:34;;;;;;;80.55;71.80;;;28.30;83.70;;;;;;1835871;78;21108;-84
2022/04/12 00:45:06;;;;;;;82.72;70.90;;;28.40;84.10;;;;;;1830313;78;21159;-84
2022/04/12 00:47:39;;;;;;;80.38;70.03;;;28.40;84.30;;;;;;1816857;78;21081;-84
2022/04/12 00:50:11;;;;;;;80.47;70.60;;;28.50;84.20;;;;;;1812063;79;21074;-84
2022/04/12 00:52:45;;;;;;;83.22;72.17;;;28.50;84.00;;;;;;1828195;78;21198;-84
2022/04/12 00:55:16;;;;;;;80.05;71.33;;;28.60;85.00;;;;;;1833411;78;21217;-83
2022/04/12 00:57:48;;;;;;;78.33;69.65;;;28.60;84.70;;;;;;1844401;78;21142;-84
2022/04/12 01:00:20;;;;;;;81.97;69.65;;;28.60;84.80;;;;;;1830177;78;21074;-85
2022/04/12 01:02:52;;;;;;;77.25;68.90;;;28.60;84.80;;;;;;1855485;77;21234;-84
2022/04/12 01:05:23;;;;;;;78.87;70.30;;;28.70;85.90;;;;;;1855981;77;21545;-84
2022/04/12 01:07:57;;;;;;;77.45;68.65;;;28.70;84.70;;;;;;1822697;77;21117;-84
2022/04/12 01:10:34;;;;;;;81.30;69.80;;;28.80;84.90;;;;;;1827297;78;21101;-84
2022/04/12 01:13:12;;;;;;;76.22;68.17;;;28.70;84.40;;;;;;1828502;78;21230;-85
2022/04/12 01:15:48;;;;;;;77.85;69.47;;;28.80;84.30;;;;;;1807478;78;21109;-85
2022/04/12 01:18:23;;;;;;;77.12;67.87;;;28.80;84.60;;;;;;1806885;79;21238;-84
2022/04/12 01:21:05;;;;;;;77.60;69.35;;;28.80;83.40;;;;;;1811432;78;21237;-84
2022/04/12 01:23:45;;;;;;;78.12;69.92;;;28.90;84.70;;;;;;1791748;79;21168;-84
2022/04/12 01:26:22;;;;;;;79.47;70.87;;;29.00;84.00;;;;;;1809865;78;21159;-84
2022/04/12 01:28:56;;;;;;;76.40;68.12;;;28.90;84.60;;;;;;1794797;79;21182;-84
2022/04/12 01:31:28;;;;;;;76.25;67.30;;;29.00;83.60;;;;;;1748372;82;21181;-85
2022/04/12 01:33:59;;;;;;;72.75;65.17;;;29.10;84.10;;;;;;1823664;79;21109;-84
2022/04/12 01:36:30;;;;;;;79.15;68.10;;;29.10;84.60;;;;;;1824704;79;21081;-84
2022/04/12 01:39:02;;;;;;;74.65;66.28;;;29.20;83.50;;;;;;1824162;79;21207;-85
2022/04/12 01:41:34;;;;;;;72.60;64.70;;;29.20;83.30;;;;;;1817489;78;21179;-84
2022/04/12 01:44:05;;;;;;;72.47;64.87;;;29.30;82.60;;;;;;1820462;78;21112;-84
2022/04/12 01:46:38;;;;;;;71.57;63.52;;;29.30;82.40;;;;;;1830954;77;21105;-83
2022/04/12 01:49:09;;;;;;;73.05;64.90;;;29.50;82.60;;;;;;1831025;78;21121;-84
2022/04/12 01:51:40;;;;;;;73.12;62.80;;;29.50;82.50;;;;;;1830797;78;21105;-84
2022/04/12 01:54:12;;;;;;;73.97;64.45;;;29.60;82.30;;;;;;1821323;78;21206;-85
2022/04/12 01:56:43;;;;;;;70.03;62.20;;;29.60;81.90;;;;;;1802208;79;21105;-84
2022/04/12 01:59:14;;;;;;;72.87;65.05;;;29.70;81.00;;;;;;1822012;78;21097;-82
2022/04/12 02:01:45;;;;;;;72.47;64.07;;;29.70;82.40;;;;;;1820850;79;21100;-84
2022/04/12 02:04:16;;;;;;;67.80;60.48;;;29.70;81.60;;;;;;1820815;79;21524;-83
2022/04/12 02:06:47;;;;;;;71.05;62.98;;;29.80;81.20;;;;;;1815637;78;21168;-83
2022/04/12 02:09:18;;;;;;;69.85;62.27;;;29.90;80.90;;;;;;1821329;78;21101;-84
2022/04/12 02:11:49;;;;;;;67.65;60.73;;;30.00;81.20;;;;;;1824311;79;21073;-83
2022/04/12 02:14:20;;;;;;;67.40;60.38;;;30.10;80.10;;;;;;1824509;78;21113;-83
2022/04/12 02:16:51;;;;;;;71.40;63.52;;;30.20;80.00;;;;;;1824052;79;21106;-82
2022/04/12 02:19:24;;;;;;;67.82;60.40;;;30.30;79.90;;;;;;1821691;78;21660;-83
2022/04/12 02:21:55;;;;;;;67.97;60.63;;;30.40;79.40;;;;;;1829236;78;21163;-84
2022/04/12 02:24:26;;;;;;;68.22;60.88;;;30.40;78.80;;;;;;1829937;78;21163;-83
2022/04/12 02:26:57;;;;;;;65.17;58.23;;;30.60;78.80;;;;;;1819043;78;21109;-83
2022/04/12 02:29:28;;;;;;;65.78;58.78;;;30.60;78.70;;;;;;1802555;79;21113;-85
2022/04/12 02:31:59;;;;;;;64.45;57.30;;;30.70;78.60;;;;;;1808382;78;21175;-83
2022/04/12 02:34:39;;;;;;;65.62;58.65;;;30.80;77.90;;;;;;1827187;78;21109;-83
2022/04/12 02:37:10;;;;;;;63.90;56.90;;;31.00;77.90;;;;;;1826897;78;21160;-84
2022/04/12 02:39:42;;;;;;;62.20;55.52;;;31.10;77.40;;;;;;1815043;78;21136;-84
2022/04/12 02:42:13;;;;;;;62.67;56.13;;;31.20;76.20;;;;;;1829681;78;21140;-85
2022/04/12 02:44:44;;;;;;;64.12;57.20;;;31.30;76.10;;;;;;1809998;78;21117;-83
2022/04/12 02:47:15;;;;;;;61.18;54.50;;;31.40;75.70;;;;;;1802509;79;21167;-84
2022/04/12 02:49:46;;;;;;;60.23;53.75;;;31.50;74.70;;;;;;1808296;78;21112;-82
2022/04/12 02:52:17;;;;;;;60.23;53.92;;;31.70;73.70;;;;;;1823228;79;21097;-84
2022/04/12 02:54:48;;;;;;;59.70;52.35;;;31.70;73.40;;;;;;1824580;79;21102;-84
2022/04/12 02:57:19;;;;;;;59.98;53.60;;;31.90;71.70;;;;;;1826942;79;21125;-83
2022/04/12 02:59:50;;;;;;;60.58;54.00;;;32.00;70.30;;;;;;1825553;78;21084;-84
2022/04/12 03:02:22;;;;;;;56.75;50.63;;;32.10;70.80;;;;;;1826171;78;21130;-83
2022/04/12 03:04:53;;;;;;;57.40;51.68;;;32.20;69.30;;;;;;1826860;78;21153;-84
2022/04/12 03:07:24;;;;;;;60.33;52.38;;;32.30;69.10;;;;;;1831794;78;21108;-84
2022/04/12 03:09:55;;;;;;;57.10;51.05;;;32.30;69.60;;;;;;1828180;78;21214;-84
2022/04/12 03:12:26;;;;;;;57.62;51.40;;;32.40;69.80;;;;;;1822765;78;21097;-82
2022/04/12 03:14:57;;;;;;;56.73;50.73;;;32.50;67.90;;;;;;1803446;78;21081;-84
2022/04/12 03:17:29;;;;;;;61.23;49.42;;;32.60;67.40;;;;;;1814318;78;21104;-83
2022/04/12 03:20:00;;;;;;;55.98;49.27;;;32.70;66.80;;;;;;1788526;79;21565;-84
2022/04/12 03:22:31;;;;;;;56.90;50.70;;;32.80;65.80;;;;;;1815759;78;21226;-84
2022/04/12 03:25:02;;;;;;;54.85;49.18;;;32.90;65.50;;;;;;1825366;78;21181;-84
2022/04/12 03:27:32;;;;;;;54.03;48.50;;;33.00;64.80;;;;;;1829806;78;21181;-84
2022/04/12 03:30:05;;;;;;;54.75;49.03;;;33.00;67.20;;;;;;1833457;78;21111;-84
2022/04/12 03:32:36;;;;;;;57.13;49.00;;;33.10;78.10;;;;;;1835279;78;21160;-83
2022/04/12 03:35:07;;;;;;;55.45;49.53;;;33.30;75.80;;;;;;1828354;77;21164;-83
2022/04/12 03:37:39;;;;;;;55.55;49.60;;;33.20;72.00;;;;;;1834220;78;21091;-84
2022/04/12 03:40:10;;;;;;;54.67;48.78;;;33.50;71.90;;;;;;1832097;77;21094;-86
2022/04/12 03:42:41;;;;;;;54.35;48.85;;;33.40;70.00;;;;;;1830037;78;21668;-84
2022/04/12 03:45:12;;;;;;;53.75;48.38;;;33.40;72.30;;;;;;1835105;78;21080;-83
2022/04/12 03:47:43;;;;;;;54.08;48.17;;;33.50;68.70;;;;;;1834087;78;21123;-83
2022/04/12 03:50:14;;;;;;;52.13;46.75;;;33.60;75.30;;;;;;1767654;80;21159;-86
2022/04/12 03:52:45;;;;;;;53.28;47.90;;;33.60;68.00;;;;;;1760969;81;21120;-85
2022/04/12 03:55:30;;;;;;;53.50;48.28;;;33.70;71.00;;;;;;1834927;78;21534;-84
2022/04/12 03:57:53;;;;;;;53.70;48.20;;;33.70;73.80;;;;;;1829979;78;21195;-83
2022/04/12 04:00:24;;;;;;;54.03;47.48;;;33.80;65.10;;;;;;1831219;78;21169;-84
2022/04/12 04:02:56;;;;;;;50.48;45.60;;;33.80;67.60;;;;;;1744624;82;21124;-84
2022/04/12 04:05:29;;;;;;;52.35;46.77;;;33.90;79.50;;;;;;1821819;78;21085;-84
2022/04/12 04:08:00;;;;;;;51.02;45.65;;;33.90;63.50;;;;;;1822813;78;21160;-84
2022/04/12 04:10:31;;;;;;;53.25;47.78;;;34.10;71.40;;;;;;1831771;78;21167;-83
2022/04/12 04:13:06;;;;;;;52.95;47.58;;;34.20;70.10;;;;;;1810223;78;21155;-82
2022/04/12 04:15:36;;;;;;;51.75;46.42;;;34.10;63.60;;;;;;1795887;78;21190;-82
2022/04/12 04:18:08;;;;;;;49.50;44.67;;;34.10;62.50;;;;;;1830178;78;21105;-83
2022/04/12 04:20:39;;;;;;;50.30;44.95;;;34.10;62.20;;;;;;1829789;78;21076;-83
2022/04/12 04:23:11;;;;;;;49.67;44.53;;;34.20;61.90;;;;;;1826388;78;21168;-85
2022/04/12 04:25:42;;;;;;;50.48;45.45;;;34.80;66.70;;;;;;1832472;78;21138;-84
2022/04/12 04:28:13;;;;;;;46.25;41.37;;;34.40;66.70;;;;;;1822186;78;21088;-85
2022/04/12 04:30:44;;;;;;;47.55;42.60;;;34.40;68.00;;;;;;1819347;78;21120;-85
2022/04/12 04:33:17;;;;;;;47.98;42.98;;;34.40;69.20;;;;;;1821855;78;21113;-83
2022/04/12 04:35:49;;;;;;;47.83;42.67;;;34.60;74.80;;;;;;1822217;78;21097;-86
2022/04/12 04:38:20;;;;;;;48.73;43.65;;;34.50;68.40;;;;;;1827200;78;21093;-86
2022/04/12 04:40:51;;;;;;;47.13;42.43;;;34.50;70.80;;;;;;1809848;79;21097;-85
2022/04/12 04:43:26;;;;;;;47.40;42.43;;;33.80;62.10;;;;;;1818387;78;21152;-86
2022/04/12 04:45:57;;;;;;;48.52;41.80;;;34.80;64.40;;;;;;1812566;78;21076;-85
2022/04/12 04:48:28;;;;;;;45.10;40.48;;;34.80;59.40;;;;;;1828807;78;21096;-85
2022/04/12 04:51:01;;;;;;;44.95;40.23;;;34.90;58.90;;;;;;1828549;78;21081;-84
2022/04/12 04:53:33;;;;;;;44.40;39.92;;;34.80;57.10;;;;;;1728971;83;21111;-85
2022/04/12 04:56:05;;;;;;;44.83;40.28;;;34.90;58.70;;;;;;1814446;78;21153;-85
2022/04/12 04:58:37;;;;;;;45.15;40.58;;;34.90;58.60;;;;;;1817064;78;21068;-85
2022/04/12 05:01:08;;;;;;;44.85;40.38;;;34.90;58.30;;;;;;1827893;78;21213;-85
2022/04/12 05:03:39;;;;;;;44.63;40.03;;;35.00;57.80;;;;;;1828892;78;21090;-85
2022/04/12 05:06:10;;;;;;;45.00;40.30;;;35.10;57.20;;;;;;1751958;80;21144;-86
2022/04/12 05:08:42;;;;;;;46.35;41.50;;;35.10;56.70;;;;;;1831519;78;21080;-85
2022/04/12 05:11:13;;;;;;;44.42;39.80;;;35.10;56.90;;;;;;1815890;78;21200;-85
2022/04/12 05:13:44;;;;;;;45.45;40.78;;;35.10;57.30;;;;;;1808343;78;21105;-85
2022/04/12 05:16:15;;;;;;;44.10;39.55;;;35.20;56.90;;;;;;1814689;78;21132;-86
2022/04/12 05:18:51;;;;;;;43.48;39.08;;;35.20;56.70;;;;;;1832930;78;21171;-85
2022/04/12 05:21:25;;;;;;;43.90;39.80;;;35.20;56.50;;;;;;1807114;79;21207;-84
2022/04/12 05:23:56;;;;;;;44.40;40.20;;;35.30;56.00;;;;;;1805964;78;21100;-85
2022/04/12 05:26:31;;;;;;;45.60;41.20;;;35.30;56.80;;;;;;1804255;78;21101;-85
2022/04/12 05:29:02;;;;;;;45.88;41.23;;;35.30;56.20;;;;;;1826729;78;21241;-86
2022/04/12 05:31:33;;;;;;;43.23;38.78;;;35.30;55.70;;;;;;1827706;78;21093;-85
2022/04/12 05:34:05;;;;;;;43.20;38.70;;;35.40;55.40;;;;;;1831420;78;21164;-85
2022/04/12 05:36:41;;;;;;;46.05;40.88;;;35.40;56.40;;;;;;1824680;78;21156;-85
2022/04/12 05:39:13;;;;;;;43.45;39.13;;;35.40;55.30;;;;;;1804544;79;21136;-84
2022/04/12 05:41:44;;;;;;;43.52;39.35;;;35.50;55.80;;;;;;1812284;78;21105;-85
2022/04/12 05:44:15;;;;;;;42.38;38.15;;;35.60;55.10;;;;;;1815134;78;21140;-85
2022/04/12 05:46:46;;;;;;;43.05;38.53;;;35.70;55.10;;;;;;1816457;78;21600;-85
2022/04/12 05:49:17;;;;;;;43.70;39.15;;;35.70;54.40;;;;;;1823065;78;21178;-85
2022/04/12 05:51:49;;;;;;;42.83;38.65;;;35.70;54.50;;;;;;1826469;78;21111;-84
2022/04/12 05:54:20;;;;;;;43.60;39.50;;;35.70;54.30;;;;;;1830489;78;21113;-84
2022/04/12 05:56:51;;;;;;;45.20;40.35;;;35.70;54.80;;;;;;1823495;78;21296;-84
2022/04/12 05:59:23;;;;;;;45.60;40.90;;;35.70;54.60;;;;;;1829275;78;21111;-85
2022/04/12 06:01:53;;;;;;;42.10;37.60;;;35.70;54.80;;;;;;1823619;79;21105;-86
2022/04/12 06:04:25;;;;;;;42.67;38.58;;;35.70;55.10;;;;;;1824604;79;21168;-85
2022/04/12 06:06:56;;;;;;;42.73;38.13;;;35.80;55.10;;;;;;1825489;78;21167;-86
2022/04/12 06:09:29;;;;;;;38.17;34.33;;;35.70;53.80;;;;;;1829163;78;21092;-84
2022/04/12 06:12:00;;;;;;;41.45;37.15;;;35.80;53.60;;;;;;1831231;78;21093;-83
2022/04/12 06:14:31;;;;;;;40.17;36.05;;;35.80;56.00;;;;;;1831394;78;21081;-83
2022/04/12 06:17:02;;;;;;;39.55;35.92;;;35.80;52.70;;;;;;1828163;78;21227;-84
2022/04/12 06:19:33;;;;;;;41.13;36.98;;;35.80;52.80;;;;;;1797620;78;21186;-85
2022/04/12 06:22:05;;;;;;;42.03;37.63;;;35.90;53.10;;;;;;1783168;80;21112;-85
2022/04/12 06:24:39;;;;;;;41.30;37.13;;;35.90;54.50;;;;;;1784592;80;21238;-85
2022/04/12 06:27:10;;;;;;;39.45;35.65;;;35.90;54.10;;;;;;1778388;80;21183;-84
2022/04/12 06:29:41;;;;;;;41.75;37.53;;;35.80;54.50;;;;;;1784724;80;21179;-84
2022/04/12 06:32:14;;;;;;;38.50;34.80;;;35.90;53.60;;;;;;1784907;80;21170;-85
2022/04/12 06:34:45;;;;;;;41.88;37.73;;;35.90;52.10;;;;;;1784531;80;21158;-84
2022/04/12 06:37:16;;;;;;;40.60;36.58;;;35.90;53.80;;;;;;1784535;80;21163;-85
2022/04/12 06:39:47;;;;;;;39.73;35.75;;;36.00;54.50;;;;;;1784735;79;21224;-85
2022/04/12 06:42:18;;;;;;;38.80;34.85;;;36.00;56.70;;;;;;1784569;80;21120;-83
2022/04/12 06:44:49;;;;;;;41.25;37.15;;;35.90;57.10;;;;;;1784068;79;21112;-85
2022/04/12 06:47:20;;;;;;;40.08;36.28;;;35.80;59.00;;;;;;1784886;80;21147;-84
2022/04/12 06:49:53;;;;;;;39.90;35.80;;;35.80;61.10;;;;;;1784968;80;21160;-84
2022/04/12 06:52:24;;;;;;;39.08;35.45;;;35.60;59.20;;;;;;1784826;80;21163;-84
2022/04/12 06:54:57;;;;;;;39.83;35.98;;;35.60;61.80;;;;;;1784700;80;21112;-84
2022/04/12 06:57:32;;;;;;;38.33;34.63;;;35.50;61.30;;;;;;1786512;80;21120;-85
2022/04/12 07:00:06;;;;;;;38.80;34.78;;;35.60;61.70;;;;;;1784782;80;21163;-85
2022/04/12 07:02:38;;;;;;;39.35;35.48;;;35.70;61.90;;;;;;1773955;80;21144;-84
2022/04/12 07:05:10;;;;;;;38.83;34.90;;;35.70;61.80;;;;;;1784732;80;21162;-84
2022/04/12 07:07:44;;;;;;;42.65;38.20;;;35.70;53.40;;;;;;1784004;80;21241;-85
2022/04/12 07:10:17;;;;;;;39.70;35.73;;;35.50;53.40;;;;;;1782609;80;21171;-84
2022/04/12 07:12:53;;;;;;;40.80;36.53;;;35.40;54.10;;;;;;1780449;80;21524;-86
2022/04/12 07:15:21;;;;;;;40.80;36.58;;;35.40;54.40;;;;;;1782727;80;21248;-85
2022/04/12 07:17:52;;;;;;;41.02;36.90;;;35.30;54.60;;;;;;1780562;79;21112;-84
2022/04/12 07:20:24;;;;;;;39.25;35.45;;;35.20;55.10;;;;;;1820406;77;21237;-84
2022/04/12 07:22:57;;;;;;;40.25;36.23;;;35.20;55.80;;;;;;1838701;78;21189;-83
2022/04/12 07:25:30;;;;;;;40.30;36.25;;;35.20;56.00;;;;;;1822176;78;21093;-83
2022/04/12 07:28:03;;;;;;;39.90;35.80;;;35.10;56.00;;;;;;1824303;78;21146;-86
2022/04/12 07:30:34;;;;;;;41.63;37.35;;;35.10;56.00;;;;;;1841904;78;21153;-85
2022/04/12 07:33:06;;;;;;;42.75;38.00;;;35.00;56.00;;;;;;1833685;78;21870;-84
2022/04/12 07:35:37;;;;;;;40.45;36.40;;;35.00;55.50;;;;;;1823101;79;21141;-84
2022/04/12 07:38:09;;;;;;;39.25;35.52;;;35.10;54.80;;;;;;1816158;78;21209;-84
2022/04/12 07:40:40;;;;;;;37.70;33.65;;;35.10;54.80;;;;;;1814541;78;21162;-85
2022/04/12 07:43:13;;;;;;;36.77;32.85;;;35.20;54.40;;;;;;1759382;81;21120;-87
2022/04/12 07:45:47;;;;;;;35.95;32.50;;;35.30;53.90;;;;;;1803610;79;21124;-85
2022/04/12 07:48:19;;;;;;;36.68;33.05;;;35.30;54.00;;;;;;1730736;83;21119;-85
2022/04/12 07:50:50;;;;;;;43.23;38.83;;;35.30;53.90;;;;;;1750158;79;21290;-85
2022/04/12 07:53:22;;;;;;;40.30;35.95;;;35.30;55.40;;;;;;1794550;80;21134;-86
2022/04/12 07:55:53;;;;;;;39.25;35.45;;;35.30;55.70;;;;;;1746196;82;21175;-85
2022/04/12 07:58:24;;;;;;;37.70;34.03;;;35.30;56.70;;;;;;1807773;78;21163;-85
2022/04/12 08:00:56;;;;;;;39.25;35.23;;;35.30;56.10;;;;;;1810199;78;21056;-86
2022/04/12 08:03:27;;;;;;;39.50;35.52;;;35.20;56.00;;;;;;1828054;78;21158;-85
2022/04/12 08:05:59;;;;;;;39.08;35.15;;;35.10;56.50;;;;;;1780444;80;21092;-85
2022/04/12 08:08:32;;;;;;;38.45;34.35;;;35.00;56.70;;;;;;1831046;78;21149;-84
2022/04/12 08:11:04;;;;;;;38.48;34.83;;;34.90;56.70;;;;;;1831167;78;21153;-85
2022/04/12 08:13:36;;;;;;;39.73;35.75;;;34.80;57.00;;;;;;1837850;78;21084;-84
2022/04/12 08:16:08;;;;;;;39.13;35.23;;;34.70;57.40;;;;;;1841060;78;21240;-86
2022/04/12 08:18:40;;;;;;;40.33;36.23;;;34.70;57.80;;;;;;1809420;78;21100;-84
2022/04/12 08:21:12;;;;;;;41.80;36.95;;;34.60;58.40;;;;;;1803073;78;21183;-86
2022/04/12 08:23:44;;;;;;;38.10;34.33;;;34.50;57.60;;;;;;1813649;79;21076;-85
2022/04/12 08:26:15;;;;;;;40.73;36.00;;;34.40;57.40;;;;;;1807966;79;21179;-85
2022/04/12 08:28:46;;;;;;;42.00;37.50;;;34.30;57.90;;;;;;1828793;78;21122;-85
2022/04/12 08:31:17;;;;;;;42.23;38.02;;;34.20;58.00;;;;;;1824975;79;21149;-87
2022/04/12 08:33:49;;;;;;;48.80;36.90;;;34.00;58.70;;;;;;1827907;78;21102;-85
2022/04/12 08:36:22;;;;;;;48.78;34.43;;;34.00;59.10;;;;;;1832686;78;21164;-84
2022/04/12 08:38:55;;;;;;;36.55;30.97;;;33.90;60.10;;;;;;1824084;79;21113;-83
2022/04/12 08:41:28;;;;;;;30.20;24.60;;;33.50;59.40;;;;;;1807464;79;21176;-82
2022/04/12 08:44:00;;;;;;;28.38;18.02;;;33.20;59.30;;;;;;1824427;78;21119;-84
2022/04/12 08:46:31;;;;;;;29.45;20.05;;;32.80;58.40;;;;;;1842222;78;21567;-83
2022/04/12 08:49:03;;;;;;;23.05;20.57;;;32.50;59.90;;;;;;1835773;78;21163;-84
2022/04/12 08:51:37;;;;;;;23.07;20.37;;;32.20;62.20;;;;;;1827583;78;21460;-84
2022/04/12 08:54:09;;;;;;;21.05;18.82;;;32.00;63.00;;;;;;1842195;78;21185;-83
2022/04/12 08:56:44;;;;;;;20.48;18.57;;;31.70;62.20;;;;;;1821113;79;21077;-83
2022/04/12 08:59:20;;;;;;;21.57;19.52;;;31.60;61.00;;;;;;1814576;78;21204;-84
2022/04/12 09:01:50;;;;;;;21.27;19.23;;;31.50;60.20;;;;;;1829722;78;21167;-84
2022/04/12 09:04:26;;;;;;;21.70;19.57;;;31.60;61.00;;;;;;1808587;79;21171;-83
2022/04/12 09:06:59;;;;;;;21.85;19.45;;;31.70;61.00;;;;;;1813735;78;21301;-84
2022/04/12 09:09:34;;;;;;;20.25;18.05;;;31.70;60.60;;;;;;1831312;78;21078;-84
2022/04/12 09:12:08;;;;;;;20.95;16.93;;;31.80;60.70;;;;;;1831354;78;21074;-84
2022/04/12 09:14:41;;;;;;;21.25;17.75;;;31.80;60.70;;;;;;1814563;78;21089;-83
2022/04/12 09:17:15;;;;;;;22.45;20.15;;;31.80;60.60;;;;;;1815867;78;21208;-81
2022/04/12 09:19:50;;;;;;;21.42;19.40;;;31.80;62.00;;;;;;1757676;80;21178;-82
2022/04/12 09:22:24;;;;;;;20.82;18.65;;;31.80;61.70;;;;;;1795921;79;21191;-81
2022/04/12 09:24:57;;;;;;;21.50;19.20;;;31.70;61.30;;;;;;1783984;80;21606;-81
2022/04/12 09:27:30;;;;;;;22.98;20.62;;;31.70;61.30;;;;;;1777692;80;21137;-81
2022/04/12 09:30:03;;;;;;;33.20;30.10;;;31.70;62.20;;;;;;1770339;81;21102;-83
2022/04/12 09:32:37;;;;;;;24.18;19.45;;;31.70;65.00;;;;;;1765442;81;21187;-83
2022/04/12 09:35:09;;;;;;;19.85;17.48;;;31.60;65.30;;;;;;1766683;80;21168;-82
2022/04/12 09:37:42;;;;;;;19.35;17.40;;;31.60;65.40;;;;;;1770482;81;21625;-82
2022/04/12 09:40:16;;;;;;;20.17;18.05;;;31.60;66.10;;;;;;1769655;81;21178;-84
2022/04/12 09:42:50;;;;;;;20.37;18.25;;;31.50;66.50;;;;;;1770699;81;21174;-83
2022/04/12 09:45:23;;;;;;;20.15;18.12;;;31.40;66.40;;;;;;1788126;79;21168;-84
2022/04/12 09:47:58;;;;;;;21.65;19.55;;;31.30;66.50;;;;;;1793420;78;21156;-83
2022/04/12 09:50:33;;;;;;;21.27;19.10;;;31.30;66.30;;;;;;1782299;79;21111;-84
2022/04/12 09:53:10;;;;;;;22.37;19.15;;;31.30;66.00;;;;;;1785620;78;21270;-83
2022/04/12 09:55:43;;;;;;;21.10;19.10;;;31.30;65.90;;;;;;1765998;80;21216;-85
2022/04/12 09:58:21;;;;;;;22.03;19.77;;;31.20;65.50;;;;;;1740960;81;21198;-83
2022/04/12 10:00:51;;;;;;;20.72;18.65;;;31.10;65.50;;;;;;1740032;82;21219;-81
2022/04/12 10:03:28;;;;;;;21.35;19.02;;;31.10;65.30;;;;;;1756194;81;21177;-84
2022/04/12 10:06:02;;;;;;;22.02;19.92;;;31.10;65.10;;;;;;1774883;80;21160;-83
2022/04/12 10:08:36;;;;;;;23.67;21.25;;;31.20;64.90;;;;;;1759411;81;21112;-83
2022/04/12 10:11:14;;;;;;;22.42;20.10;;;31.20;64.60;;;;;;1752688;80;21100;-83
2022/04/12 10:13:52;;;;;;;23.22;20.75;;;31.30;64.80;;;;;;1777912;79;21079;-83
2022/04/12 10:16:24;;;;;;;22.70;20.50;;;31.30;64.80;;;;;;1791424;80;21171;-83
2022/04/12 10:18:55;;;;;;;23.50;21.17;;;31.40;64.40;;;;;;1784078;80;21097;-82
2022/04/12 10:21:27;;;;;;;23.73;21.17;;;31.40;63.70;;;;;;1792702;80;21176;-82
2022/04/12 10:24:00;;;;;;;21.90;19.80;;;31.50;63.10;;;;;;1791463;80;21148;-83
2022/04/12 10:26:32;;;;;;;23.75;21.45;;;31.50;63.10;;;;;;1826308;78;21089;-82
2022/04/12 10:29:05;;;;;;;23.83;21.50;;;31.60;63.00;;;;;;1829380;78;21064;-82
2022/04/12 10:31:37;;;;;;;27.52;21.23;;;31.60;62.80;;;;;;1793291;79;21509;-82
2022/04/12 10:34:13;;;;;;;22.93;20.62;;;31.60;62.30;;;;;;1818754;78;21187;-82
2022/04/12 10:36:47;;;;;;;26.40;21.05;;;31.60;62.40;;;;;;1832492;78;21194;-83
2022/04/12 10:39:21;;;;;;;25.25;20.82;;;31.60;62.30;;;;;;1832881;77;21144;-83
2022/04/12 10:41:54;;;;;;;23.95;20.50;;;31.60;62.40;;;;;;1820821;78;21101;-83
2022/04/12 10:44:25;;;;;;;24.00;21.50;;;31.60;62.40;;;;;;1818709;78;21195;-82
2022/04/12 10:46:57;;;;;;;24.20;21.60;;;31.60;62.40;;;;;;1825420;77;21085;-84
2022/04/12 10:49:31;;;;;;;23.62;21.27;;;31.60;62.30;;;;;;1830751;77;21209;-83
2022/04/12 10:52:02;;;;;;;23.77;21.27;;;31.60;63.20;;;;;;1840602;77;21219;-83
2022/04/12 10:54:36;;;;;;;24.35;22.00;;;31.60;63.20;;;;;;1834159;77;21214;-83
2022/04/12 10:57:13;;;;;;;25.23;22.40;;;31.60;63.70;;;;;;1808278;78;21155;-82
2022/04/12 10:59:47;;;;;;;24.52;22.17;;;31.60;63.10;;;;;;1817249;78;21313;-83
2022/04/12 11:02:21;;;;;;;24.23;21.65;;;31.60;63.10;;;;;;1817215;78;21105;-84
2022/04/12 11:04:52;;;;;;;25.57;22.58;;;31.60;63.60;;;;;;1819933;78;21200;-83
2022/04/12 11:07:26;;;;;;;25.43;21.87;;;31.60;63.70;;;;;;1825394;78;21084;-84
2022/04/12 11:09:59;;;;;;;24.70;21.95;;;31.50;64.10;;;;;;1801564;78;21247;-83
2022/04/12 11:12:32;;;;;;;27.02;22.95;;;31.50;64.50;;;;;;1785659;80;21166;-84
2022/04/12 11:15:06;;;;;;;23.87;21.62;;;31.40;64.80;;;;;;1752883;81;21200;-83
2022/04/12 11:17:39;;;;;;;26.30;22.52;;;31.40;65.30;;;;;;1740371;82;21262;-83
2022/04/12 11:20:12;;;;;;;26.35;22.55;;;31.40;65.50;;;;;;1763139;81;21214;-84
2022/04/12 11:22:45;;;;;;;24.15;21.82;;;31.40;65.90;;;;;;1778115;80;21100;-83
2022/04/12 11:25:20;;;;;;;25.52;22.82;;;31.30;66.30;;;;;;1779138;80;21105;-84
2022/04/12 11:27:55;;;;;;;25.10;22.50;;;31.30;66.40;;;;;;1768816;80;21183;-84
2022/04/12 11:30:27;;;;;;;24.65;22.17;;;31.30;66.40;;;;;;1775082;81;21199;-84
2022/04/12 11:32:59;;;;;;;25.68;23.07;;;31.30;66.80;;;;;;1777308;79;21156;-83
2022/04/12 11:35:31;;;;;;;32.03;26.65;;;31.20;67.30;;;;;;1778664;81;21549;-83
2022/04/12 11:38:04;;;;;;;33.20;29.63;;;31.20;67.20;;;;;;1774606;81;21096;-84
2022/04/12 11:40:35;;;;;;;37.38;26.87;;;31.20;67.60;;;;;;1776416;79;21112;-84
2022/04/12 11:43:08;;;;;;;28.77;25.82;;;31.10;67.40;;;;;;1782654;79;21104;-83
2022/04/12 11:45:41;;;;;;;27.13;24.18;;;31.20;67.30;;;;;;1774491;81;21140;-83
2022/04/12 11:48:15;;;;;;;26.48;23.62;;;31.20;66.80;;;;;;1772935;81;21101;-82
2022/04/12 11:50:48;;;;;;;26.55;23.10;;;31.20;67.10;;;;;;1774526;81;21117;-83
2022/04/12 11:53:22;;;;;;;26.85;24.18;;;31.20;67.10;;;;;;1773977;81;21225;-83
2022/04/12 11:55:54;;;;;;;27.55;24.50;;;31.20;67.30;;;;;;1778757;81;21089;-83
2022/04/12 11:58:29;;;;;;;27.35;24.43;;;31.20;67.40;;;;;;1776652;81;21069;-83
2022/04/12 12:01:00;;;;;;;26.85;24.05;;;31.20;67.50;;;;;;1770989;81;21089;-83
2022/04/12 12:03:36;;;;;;;28.75;23.40;;;31.20;67.40;;;;;;1777741;81;21176;-82
2022/04/12 12:06:09;;;;;;;27.27;24.37;;;31.10;67.40;;;;;;1750128;81;21177;-83
2022/04/12 12:08:40;;;;;;;28.00;25.10;;;31.10;67.50;;;;;;1729789;83;21124;-82
2022/04/12 12:11:13;;;;;;;27.62;24.67;;;31.10;67.70;;;;;;1776243;80;21100;-83
2022/04/12 12:13:49;;;;;;;34.05;25.40;;;31.10;67.90;;;;;;1779421;81;21089;-82
2022/04/12 12:16:23;;;;;;;28.65;24.98;;;31.10;68.00;;;;;;1750854;81;21125;-83
2022/04/12 12:18:54;;;;;;;32.65;28.02;;;31.10;68.00;;;;;;1774168;81;21175;-82
2022/04/12 12:21:28;;;;;;;35.00;28.07;;;31.10;68.40;;;;;;1778555;80;21097;-83
2022/04/12 12:23:59;;;;;;;32.42;28.27;;;31.10;68.40;;;;;;1789011;79;21249;-82
2022/04/12 12:26:31;;;;;;;35.13;30.20;;;31.10;68.70;;;;;;1819798;78;21113;-82
2022/04/12 12:29:02;;;;;;;36.25;29.42;;;31.10;68.60;;;;;;1819599;78;21205;-83
2022/04/12 12:31:35;;;;;;;31.55;28.20;;;31.00;68.50;;;;;;1780935;78;21121;-83
2022/04/12 12:34:06;;;;;;;32.83;27.87;;;31.00;68.70;;;;;;1784124;79;21111;-83
2022/04/12 12:36:40;;;;;;;32.63;28.98;;;31.10;68.80;;;;;;1791841;79;21109;-82
2022/04/12 12:39:11;;;;;;;37.42;32.88;;;31.00;69.00;;;;;;1798658;79;21164;-81
2022/04/12 12:41:42;;;;;;;32.40;28.52;;;31.10;69.30;;;;;;1829397;78;21167;-82
2022/04/12 12:44:14;;;;;;;33.50;27.67;;;31.00;69.50;;;;;;1797688;78;21070;-84
2022/04/12 12:46:52;;;;;;;34.92;27.42;;;31.00;69.60;;;;;;1807149;78;21545;-83
2022/04/12 12:49:23;;;;;;;30.37;26.30;;;31.00;69.50;;;;;;1825771;78;21087;-83
2022/04/12 12:51:55;;;;;;;29.98;26.05;;;31.00;69.70;;;;;;1827304;78;21167;-82
2022/04/12 12:54:27;;;;;;;29.72;26.57;;;30.90;70.00;;;;;;1834812;78;21536;-82
2022/04/12 12:57:08;;;;;;;29.02;26.00;;;31.00;70.40;;;;;;1829177;77;21148;-82